createdAt,value
2023-05-06T00:01:24.459Z,96182.22
2023-05-06T00:03:52.392Z,96188.47
2023-05-06T00:06:19.302Z,96187.78
2023-05-06T00:08:46.863Z,96191.03
2023-05-06T00:11:13.985Z,96203.84
2023-05-06T00:13:41.700Z,96201.03
2023-05-06T00:16:08.640Z,96196.41
2023-05-06T00:18:35.692Z,96198.97
2023-05-06T00:21:02.644Z,96200.84
2023-05-06T00:23:29.564Z,96194.84
2023-05-06T00:25:56.402Z,96191.00
2023-05-06T00:28:23.316Z,96198.63
2023-05-06T00:30:50.279Z,96201.56
2023-05-06T00:33:17.144Z,96205.75
2023-05-06T00:35:44.060Z,96187.53
2023-05-06T00:38:15.608Z,96208.75
2023-05-06T00:40:42.982Z,96189.59
2023-05-06T00:43:10.277Z,96192.25
2023-05-06T00:45:37.630Z,96211.50
2023-05-06T00:48:07.956Z,96180.88
2023-05-06T00:50:36.011Z,96201.47
2023-05-06T00:53:05.828Z,96182.22
2023-05-06T00:55:32.838Z,96214.75
2023-05-06T00:57:59.854Z,96183.88
2023-05-06T01:00:26.956Z,96172.63
2023-05-06T01:02:54.003Z,96175.97
2023-05-06T01:05:24.110Z,96203.34
2023-05-06T01:08:03.939Z,96221.66
2023-05-06T01:10:47.516Z,96213.09
2023-05-06T01:13:34.475Z,96199.78
2023-05-06T01:16:05.261Z,96172.44
2023-05-06T01:18:33.392Z,96227.41
2023-05-06T01:21:02.049Z,96175.09
2023-05-06T01:23:29.009Z,96227.31
2023-05-06T01:25:55.937Z,96189.88
2023-05-06T01:28:22.849Z,96226.03
2023-05-06T01:30:52.786Z,96242.00
2023-05-06T01:33:25.387Z,96233.97
2023-05-06T01:35:55.759Z,96243.66
2023-05-06T01:38:35.789Z,96232.69
2023-05-06T01:41:03.698Z,96233.47
2023-05-06T01:43:37.941Z,96239.22
2023-05-06T01:46:06.401Z,96191.72
2023-05-06T01:48:36.639Z,96183.00
2023-05-06T01:51:03.685Z,96195.09
2023-05-06T01:53:30.511Z,96216.03
2023-05-06T01:56:00.127Z,96192.69
2023-05-06T01:58:27.147Z,96202.50
2023-05-06T02:00:54.069Z,96192.06
2023-05-06T02:03:21.022Z,96189.53
2023-05-06T02:05:48.231Z,96188.16
2023-05-06T02:08:15.087Z,96207.75
2023-05-06T02:10:42.187Z,96207.09
2023-05-06T02:13:11.751Z,96170.66
2023-05-06T02:15:38.709Z,96205.09
2023-05-06T02:18:08.606Z,96190.31
2023-05-06T02:20:35.608Z,96192.53
2023-05-06T02:23:03.288Z,96177.66
2023-05-06T02:25:30.242Z,96192.63
2023-05-06T02:27:57.073Z,96195.47
2023-05-06T02:30:23.951Z,96212.09
2023-05-06T02:32:50.839Z,96211.66
2023-05-06T02:35:18.126Z,96171.91
2023-05-06T02:37:45.109Z,96202.81
2023-05-06T02:40:12.363Z,96191.28
2023-05-06T02:42:39.292Z,96204.06
2023-05-06T02:45:07.178Z,96174.31
2023-05-06T02:47:34.310Z,96197.06
2023-05-06T02:50:01.249Z,96161.47
2023-05-06T02:52:28.094Z,96183.63
2023-05-06T02:54:55.218Z,96183.47
2023-05-06T02:57:22.129Z,96184.69
2023-05-06T02:59:48.948Z,96186.56
2023-05-06T03:02:15.930Z,96193.22
2023-05-06T03:04:43.169Z,96166.94
2023-05-06T03:07:10.107Z,96173.06
2023-05-06T03:09:37.188Z,96161.34
2023-05-06T03:12:04.198Z,96163.44
2023-05-06T03:14:31.930Z,96150.13
2023-05-06T03:16:59.629Z,96187.22
2023-05-06T03:19:26.787Z,96175.00
2023-05-06T03:21:53.937Z,96199.16
2023-05-06T03:24:21.120Z,96184.16
2023-05-06T03:26:48.556Z,96202.06
2023-05-06T03:29:15.504Z,96206.09
2023-05-06T03:31:44.918Z,96191.84
2023-05-06T03:34:12.877Z,96207.84
2023-05-06T03:36:39.768Z,96182.91
2023-05-06T03:39:06.730Z,96210.16
2023-05-06T03:41:35.973Z,96217.09
2023-05-06T03:44:03.132Z,96167.19
2023-05-06T03:46:30.966Z,96195.41
2023-05-06T03:48:58.567Z,96196.97
2023-05-06T03:51:26.687Z,96201.66
2023-05-06T03:53:55.075Z,96218.13
2023-05-06T03:56:23.273Z,96206.81
2023-05-06T03:58:54.549Z,96203.06
2023-05-06T04:01:23.558Z,96188.75
2023-05-06T04:03:50.772Z,96200.56
2023-05-06T04:06:18.483Z,96210.94
2023-05-06T04:08:45.562Z,96217.25
2023-05-06T04:11:12.518Z,96195.91
2023-05-06T04:13:39.448Z,96204.88
2023-05-06T04:16:12.817Z,96210.75
2023-05-06T04:18:44.222Z,96216.28
2023-05-06T04:21:14.137Z,96188.59
2023-05-06T04:23:44.518Z,96219.25
2023-05-06T04:26:15.728Z,96224.31
2023-05-06T04:28:44.358Z,96209.44
2023-05-06T04:31:14.663Z,96210.47
2023-05-06T04:33:45.309Z,96232.84
2023-05-06T04:36:16.094Z,96225.09
2023-05-06T04:38:53.609Z,96234.81
2023-05-06T04:41:21.028Z,96222.34
2023-05-06T04:43:47.880Z,96204.72
2023-05-06T04:46:21.262Z,96220.69
2023-05-06T04:48:48.511Z,96228.50
2023-05-06T04:51:16.375Z,96204.38
2023-05-06T04:53:43.506Z,96230.78
2023-05-06T04:56:10.521Z,96243.41
2023-05-06T04:58:37.402Z,96232.19
2023-05-06T05:01:07.349Z,96242.31
2023-05-06T05:03:34.702Z,96227.84
2023-05-06T05:06:03.690Z,96231.53
2023-05-06T05:08:31.178Z,96234.03
2023-05-06T05:10:58.216Z,96256.94
2023-05-06T05:13:27.506Z,96233.19
2023-05-06T05:15:56.174Z,96270.75
2023-05-06T05:18:25.907Z,96232.22
2023-05-06T05:20:56.694Z,96251.56
2023-05-06T05:23:24.055Z,96236.31
2023-05-06T05:25:51.377Z,96281.09
2023-05-06T05:28:18.251Z,96265.34
2023-05-06T05:30:45.452Z,96288.69
2023-05-06T05:33:12.397Z,96211.63
2023-05-06T05:35:40.189Z,96269.41
2023-05-06T05:38:07.597Z,96278.44
2023-05-06T05:40:36.310Z,96276.66
2023-05-06T05:43:03.191Z,96239.44
2023-05-06T05:45:35.855Z,96253.50
2023-05-06T05:48:02.905Z,96274.63
2023-05-06T05:50:29.943Z,96271.38
2023-05-06T05:52:58.207Z,96263.31
2023-05-06T05:55:26.572Z,96273.69
2023-05-06T05:57:53.431Z,96281.94
2023-05-06T06:00:22.022Z,96297.88
2023-05-06T06:02:55.050Z,96301.03
2023-05-06T06:05:22.705Z,96278.75
2023-05-06T06:07:51.020Z,96305.56
2023-05-06T06:10:18.348Z,96277.41
2023-05-06T06:12:45.629Z,96279.56
2023-05-06T06:15:17.369Z,96281.44
2023-05-06T06:17:45.406Z,96284.09
2023-05-06T06:20:13.321Z,96292.91
2023-05-06T06:22:41.116Z,96285.38
2023-05-06T06:25:08.488Z,96288.03
2023-05-06T06:27:36.901Z,96314.50
2023-05-06T06:30:05.065Z,96294.44
2023-05-06T06:32:32.091Z,96304.13
2023-05-06T06:34:59.007Z,96300.88
2023-05-06T06:37:25.921Z,96306.00
2023-05-06T06:39:55.846Z,96289.56
2023-05-06T06:42:22.775Z,96304.56
2023-05-06T06:44:59.663Z,96328.22
2023-05-06T06:47:26.524Z,96301.72
2023-05-06T06:49:53.375Z,96335.16
2023-05-06T06:52:20.237Z,96306.88
2023-05-06T06:54:47.191Z,96330.84
2023-05-06T06:57:14.248Z,96323.16
2023-05-06T06:59:41.294Z,96313.25
2023-05-06T07:02:08.245Z,96328.88
2023-05-06T07:04:35.149Z,96310.81
2023-05-06T07:07:02.067Z,96319.09
2023-05-06T07:09:28.937Z,96287.19
2023-05-06T07:11:55.856Z,96316.81
2023-05-06T07:14:22.756Z,96322.03
2023-05-06T07:16:51.473Z,96317.16
2023-05-06T07:19:18.568Z,96337.41
2023-05-06T07:21:45.413Z,96350.06
2023-05-06T07:24:12.319Z,96326.81
2023-05-06T07:26:39.904Z,96351.59
2023-05-06T07:29:06.788Z,96359.72
2023-05-06T07:31:34.300Z,96343.13
2023-05-06T07:34:01.390Z,96362.53
2023-05-06T07:36:28.943Z,96337.31
2023-05-06T07:38:55.798Z,96350.66
2023-05-06T07:41:22.676Z,96366.63
2023-05-06T07:43:49.501Z,96364.72
2023-05-06T07:46:16.796Z,96366.91
2023-05-06T07:48:43.724Z,96365.09
2023-05-06T07:51:10.881Z,96360.13
2023-05-06T07:53:40.274Z,96367.75
2023-05-06T07:56:07.496Z,96364.19
2023-05-06T07:58:34.483Z,96352.53
2023-05-06T08:01:01.361Z,96384.22
2023-05-06T08:03:28.539Z,96374.66
2023-05-06T08:05:55.741Z,96379.44
2023-05-06T08:08:23.878Z,96396.06
2023-05-06T08:10:50.765Z,96388.28
2023-05-06T08:13:17.812Z,96377.50
2023-05-06T08:15:44.989Z,96392.63
2023-05-06T08:18:21.746Z,96393.34
2023-05-06T08:20:51.787Z,96387.41
2023-05-06T08:23:18.717Z,96368.69
2023-05-06T08:25:46.766Z,96371.06
2023-05-06T08:28:13.734Z,96378.50
2023-05-06T08:30:40.665Z,96381.16
2023-05-06T08:33:07.664Z,96382.41
2023-05-06T08:35:34.650Z,96361.34
2023-05-06T08:38:02.181Z,96376.78
2023-05-06T08:40:32.793Z,96396.47
2023-05-06T08:43:03.012Z,96406.13
2023-05-06T08:45:30.434Z,96374.41
2023-05-06T08:47:57.445Z,96380.41
2023-05-06T08:50:25.780Z,96389.00
2023-05-06T08:52:52.977Z,96395.75
2023-05-06T08:55:22.072Z,96391.16
2023-05-06T08:57:50.946Z,96411.59
2023-05-06T09:00:18.154Z,96386.69
2023-05-06T09:02:45.049Z,96387.88
2023-05-06T09:05:12.742Z,96384.19
2023-05-06T09:07:39.953Z,96410.16
2023-05-06T09:10:14.336Z,96400.03
2023-05-06T09:12:41.817Z,96410.97
2023-05-06T09:15:10.105Z,96400.59
2023-05-06T09:17:37.298Z,96401.41
2023-05-06T09:20:08.486Z,96400.19
2023-05-06T09:22:38.682Z,96372.47
2023-05-06T09:25:09.165Z,96380.75
2023-05-06T09:27:37.045Z,96373.47
2023-05-06T09:30:09.447Z,96416.47
2023-05-06T09:32:39.854Z,96373.56
2023-05-06T09:35:08.736Z,96407.94
2023-05-06T09:37:36.397Z,96395.25
2023-05-06T09:40:03.327Z,96394.78
2023-05-06T09:42:31.401Z,96362.47
2023-05-06T09:45:02.252Z,96379.59
2023-05-06T09:47:37.128Z,96390.53
2023-05-06T09:50:04.637Z,96387.44
2023-05-06T09:52:31.781Z,96385.72
2023-05-06T09:54:59.581Z,96402.81
2023-05-06T09:57:27.108Z,96359.03
2023-05-06T09:59:55.783Z,96378.09
2023-05-06T10:02:27.085Z,96407.31
2023-05-06T10:04:56.289Z,96396.84
2023-05-06T10:07:25.845Z,96391.91
2023-05-06T10:09:54.721Z,96398.75
2023-05-06T10:12:22.050Z,96413.47
2023-05-06T10:14:49.036Z,96395.13
2023-05-06T10:17:18.380Z,96385.75
2023-05-06T10:19:50.791Z,96381.22
2023-05-06T10:22:35.907Z,96412.47
2023-05-06T10:25:29.317Z,96415.34
2023-05-06T10:27:56.339Z,96387.81
2023-05-06T10:30:28.662Z,96367.13
2023-05-06T10:32:57.267Z,96381.88
2023-05-06T10:35:36.425Z,96399.78
2023-05-06T10:38:05.522Z,96383.59
2023-05-06T10:40:32.732Z,96364.66
2023-05-06T10:43:22.384Z,96393.25
2023-05-06T10:46:11.730Z,96387.34
2023-05-06T10:48:59.868Z,96347.38
2023-05-06T10:51:28.613Z,96319.97
2023-05-06T10:54:08.347Z,96382.47
2023-05-06T10:56:35.217Z,96381.59
2023-05-06T10:59:09.459Z,96381.44
2023-05-06T11:01:37.801Z,96349.50
2023-05-06T11:04:10.007Z,96341.53
2023-05-06T11:06:46.773Z,96372.19
2023-05-06T11:09:21.862Z,96374.06
2023-05-06T11:11:49.753Z,96374.59
2023-05-06T11:14:26.659Z,96382.44
2023-05-06T11:16:54.882Z,96355.91
2023-05-06T11:19:24.117Z,96381.00
2023-05-06T11:21:52.802Z,96388.97
2023-05-06T11:24:24.865Z,96377.84
2023-05-06T11:26:52.169Z,96365.16
2023-05-06T11:29:19.550Z,96368.47
2023-05-06T11:31:46.934Z,96395.88
2023-05-06T11:34:21.309Z,96375.56
2023-05-06T11:36:51.486Z,96374.97
2023-05-06T11:39:18.415Z,96376.34
2023-05-06T11:41:45.279Z,96397.63
2023-05-06T11:44:14.493Z,96385.34
2023-05-06T11:46:43.982Z,96392.22
2023-05-06T11:49:13.783Z,96399.09
2023-05-06T11:51:40.671Z,96375.53
2023-05-06T11:54:11.220Z,96383.75
2023-05-06T11:56:49.102Z,96386.09
2023-05-06T11:59:16.238Z,96375.69
2023-05-06T12:01:43.911Z,96386.41
2023-05-06T12:04:11.697Z,96397.09
2023-05-06T12:06:39.630Z,96390.28
2023-05-06T12:09:09.574Z,96391.44
2023-05-06T12:11:37.703Z,96384.91
2023-05-06T12:14:06.988Z,96383.56
2023-05-06T12:16:35.515Z,96397.56
2023-05-06T12:19:03.663Z,96402.38
2023-05-06T12:21:31.190Z,96369.00
2023-05-06T12:24:01.945Z,96374.63
2023-05-06T12:26:30.650Z,96377.44
2023-05-06T12:29:08.817Z,96378.56
2023-05-06T12:31:36.216Z,96387.00
2023-05-06T12:34:04.234Z,96374.72
2023-05-06T12:36:32.781Z,96366.25
2023-05-06T12:39:01.469Z,96361.31
2023-05-06T12:41:41.477Z,96387.16
2023-05-06T12:44:37.731Z,96381.25
2023-05-06T12:47:09.614Z,96386.63
2023-05-06T12:49:58.433Z,96393.06
2023-05-06T12:52:29.140Z,96384.28
2023-05-06T12:54:57.029Z,96374.31
2023-05-06T12:57:24.076Z,96363.22
2023-05-06T12:59:51.140Z,96346.78
2023-05-06T13:02:18.954Z,96367.66
2023-05-06T13:04:47.188Z,96378.91
2023-05-06T13:07:14.230Z,96378.63
2023-05-06T13:09:41.163Z,96356.00
2023-05-06T13:12:08.273Z,96377.03
2023-05-06T13:14:36.870Z,96363.59
2023-05-06T13:17:07.198Z,96352.44
2023-05-06T13:19:34.337Z,96364.38
2023-05-06T13:22:01.859Z,96365.50
2023-05-06T13:24:29.766Z,96358.56
2023-05-06T13:26:57.643Z,96366.41
2023-05-06T13:29:24.830Z,96367.81
2023-05-06T13:31:51.897Z,96362.06
2023-05-06T13:34:19.058Z,96341.16
2023-05-06T13:36:46.942Z,96367.97
2023-05-06T13:39:14.086Z,96353.16
2023-05-06T13:41:41.068Z,96347.13
2023-05-06T13:44:08.417Z,96378.50
2023-05-06T13:46:35.278Z,96372.06
2023-05-06T13:49:02.175Z,96358.78
2023-05-06T13:51:32.908Z,96342.50
2023-05-06T13:53:59.805Z,96333.34
2023-05-06T13:56:27.170Z,96362.44
2023-05-06T13:58:54.162Z,96357.88
2023-05-06T14:01:22.212Z,96343.63
2023-05-06T14:03:49.474Z,96327.63
2023-05-06T14:06:16.670Z,96341.38
2023-05-06T14:08:43.937Z,96352.47
2023-05-06T14:11:10.794Z,96351.22
2023-05-06T14:13:38.108Z,96342.56
2023-05-06T14:16:05.304Z,96332.50
2023-05-06T14:18:33.320Z,96347.84
2023-05-06T14:21:00.424Z,96348.06
2023-05-06T14:23:27.287Z,96348.22
2023-05-06T14:25:54.179Z,96338.06
2023-05-06T14:28:21.041Z,96301.06
2023-05-06T14:30:48.018Z,96337.16
2023-05-06T14:33:14.925Z,96320.31
2023-05-06T14:35:42.838Z,96340.25
2023-05-06T14:38:11.064Z,96325.53
2023-05-06T14:40:38.994Z,96329.66
2023-05-06T14:43:07.654Z,96319.31
2023-05-06T14:45:34.945Z,96324.31
2023-05-06T14:48:02.069Z,96292.63
2023-05-06T14:50:30.273Z,96301.94
2023-05-06T14:52:57.175Z,96287.03
2023-05-06T14:55:24.110Z,96311.06
2023-05-06T14:57:51.385Z,96304.84
2023-05-06T15:00:18.617Z,96286.88
2023-05-06T15:02:45.637Z,96314.50
2023-05-06T15:05:13.381Z,96304.97
2023-05-06T15:07:40.601Z,96302.72
2023-05-06T15:10:07.928Z,96317.28
2023-05-06T15:12:36.589Z,96318.03
2023-05-06T15:15:05.568Z,96307.31
2023-05-06T15:17:32.791Z,96318.03
2023-05-06T15:19:59.909Z,96309.22
2023-05-06T15:22:26.989Z,96319.88
2023-05-06T15:24:53.851Z,96306.16
2023-05-06T15:27:20.826Z,96323.41
2023-05-06T15:29:47.822Z,96311.06
2023-05-06T15:32:15.168Z,96308.00
2023-05-06T15:34:42.081Z,96285.75
2023-05-06T15:37:09.011Z,96290.41
2023-05-06T15:39:39.196Z,96334.06
2023-05-06T15:42:06.492Z,96313.81
2023-05-06T15:44:34.143Z,96329.91
2023-05-06T15:47:01.123Z,96330.28
2023-05-06T15:52:00.843Z,96324.94
2023-05-06T15:54:28.968Z,96317.28
2023-05-06T15:56:56.652Z,96320.19
2023-05-06T15:59:23.900Z,96333.97
2023-05-06T16:02:25.289Z,96319.09
2023-05-06T16:04:37.959Z,96218.34
2023-05-06T16:07:05.022Z,96301.16
2023-05-06T16:09:31.882Z,96321.03
2023-05-06T16:11:58.764Z,96305.66
2023-05-06T16:14:25.609Z,96273.78
2023-05-06T16:16:52.815Z,96296.75
2023-05-06T16:19:19.764Z,96295.25
2023-05-06T16:21:46.689Z,96303.41
2023-05-06T16:24:13.543Z,96327.94
2023-05-06T16:26:40.695Z,96316.50
2023-05-06T16:29:07.589Z,96298.09
2023-05-06T16:31:34.738Z,96303.59
2023-05-06T16:34:01.687Z,96283.34
2023-05-06T16:36:28.887Z,96304.19
2023-05-06T16:38:55.799Z,96302.66
2023-05-06T16:41:22.724Z,96301.81
2023-05-06T16:43:49.878Z,96300.66
2023-05-06T16:46:16.773Z,96295.13
2023-05-06T16:48:43.773Z,96298.34
2023-05-06T16:51:12.448Z,96294.19
2023-05-06T16:53:39.445Z,96291.00
2023-05-06T16:56:06.672Z,96291.38
2023-05-06T16:58:33.556Z,96292.56
2023-05-06T17:01:00.526Z,96289.50
2023-05-06T17:03:27.482Z,96297.16
2023-05-06T17:05:54.683Z,96302.44
2023-05-06T17:08:22.997Z,96304.28
2023-05-06T17:10:51.361Z,96278.41
2023-05-06T17:13:18.367Z,96289.19
2023-05-06T17:15:45.317Z,96292.06
2023-05-06T17:18:12.786Z,96315.00
2023-05-06T17:23:09.440Z,96288.53
2023-05-06T17:25:36.453Z,96293.50
2023-05-06T17:28:03.351Z,96292.47
2023-05-06T17:30:30.273Z,96280.16
2023-05-06T17:32:57.169Z,96296.66
2023-05-06T17:35:24.060Z,96276.47
2023-05-06T17:37:51.607Z,96286.22
2023-05-06T17:40:18.497Z,96307.50
2023-05-06T17:42:45.682Z,96298.44
2023-05-06T17:45:12.863Z,96300.25
2023-05-06T17:47:39.917Z,96278.88
2023-05-06T17:50:07.184Z,96284.56
2023-05-06T17:52:34.068Z,96295.22
2023-05-06T17:55:11.341Z,96299.31
2023-05-06T17:57:43.292Z,96306.81
2023-05-06T18:00:11.685Z,96313.59
2023-05-06T18:02:42.698Z,96301.69
2023-05-06T18:05:10.241Z,96303.09
2023-05-06T18:07:37.348Z,96234.44
2023-05-06T18:10:04.480Z,96319.50
2023-05-06T18:12:31.482Z,96306.81
2023-05-06T18:14:58.758Z,96286.84
2023-05-06T18:17:25.903Z,96307.44
2023-05-06T18:19:53.081Z,96320.91
2023-05-06T18:22:19.954Z,96316.78
2023-05-06T18:24:46.822Z,96308.75
2023-05-06T18:27:13.826Z,96292.88
2023-05-06T18:29:41.495Z,96319.69
2023-05-06T18:32:08.681Z,96290.34
2023-05-06T18:34:35.788Z,96284.25
2023-05-06T18:37:02.735Z,96294.91
2023-05-06T18:39:29.643Z,96299.72
2023-05-06T18:41:56.508Z,96310.91
2023-05-06T18:44:23.400Z,96320.25
2023-05-06T18:46:50.311Z,96325.22
2023-05-06T18:49:17.352Z,96320.91
2023-05-06T18:51:44.243Z,96329.72
2023-05-06T18:54:11.230Z,96309.91
2023-05-06T18:56:38.548Z,96299.59
2023-05-06T18:59:05.861Z,96331.94
2023-05-06T19:01:32.835Z,96316.53
2023-05-06T19:03:59.758Z,96321.91
2023-05-06T19:06:27.026Z,96318.69
2023-05-06T19:08:54.062Z,96333.13
2023-05-06T19:11:21.469Z,96320.75
2023-05-06T19:13:50.274Z,96336.91
2023-05-06T19:16:17.182Z,96334.25
2023-05-06T19:18:44.082Z,96318.88
2023-05-06T19:21:12.499Z,96340.19
2023-05-06T19:23:39.416Z,96339.94
2023-05-06T19:26:07.083Z,96343.34
2023-05-06T19:28:34.508Z,96326.56
2023-05-06T19:31:01.826Z,96346.25
2023-05-06T19:33:28.879Z,96336.97
2023-05-06T19:35:55.707Z,96334.06
2023-05-06T19:38:22.597Z,96339.22
2023-05-06T19:40:49.513Z,96348.00
2023-05-06T19:43:16.406Z,96352.16
2023-05-06T19:45:43.378Z,96333.94
2023-05-06T19:48:10.291Z,96330.41
2023-05-06T19:50:37.433Z,96339.16
2023-05-06T19:53:04.416Z,96313.91
2023-05-06T19:55:31.858Z,96374.59
2023-05-06T19:57:58.967Z,96347.88
2023-05-06T20:00:28.343Z,96367.81
2023-05-06T20:02:57.775Z,96341.75
2023-05-06T20:05:29.771Z,96347.91
2023-05-06T20:07:56.915Z,96372.66
2023-05-06T20:10:23.926Z,96359.84
2023-05-06T20:12:51.169Z,96339.75
2023-05-06T20:15:18.263Z,96346.44
2023-05-06T20:17:45.189Z,96351.75
2023-05-06T20:20:12.364Z,96358.22
2023-05-06T20:22:40.627Z,96372.41
2023-05-06T20:25:17.831Z,96365.50
2023-05-06T20:27:45.809Z,96364.19
2023-05-06T20:30:12.989Z,96348.50
2023-05-06T20:32:40.627Z,96363.69
2023-05-06T20:35:08.949Z,96373.13
2023-05-06T20:37:36.644Z,96341.78
2023-05-06T20:40:05.937Z,96365.13
2023-05-06T20:42:32.872Z,96351.38
2023-05-06T20:45:00.419Z,96343.47
2023-05-06T20:47:27.793Z,96337.75
2023-05-06T20:49:55.361Z,96328.69
2023-05-06T20:52:22.522Z,96347.88
2023-05-06T20:54:49.910Z,96340.47
2023-05-06T20:57:17.571Z,96344.56
2023-05-06T20:59:44.672Z,96355.56
2023-05-06T21:02:11.839Z,96337.31
2023-05-06T21:04:38.785Z,96325.59
2023-05-06T21:07:05.752Z,96348.28
2023-05-06T21:09:32.673Z,96321.56
2023-05-06T21:11:59.547Z,96366.13
2023-05-06T21:14:27.539Z,96357.63
2023-05-06T21:16:54.503Z,96363.03
2023-05-06T21:19:21.397Z,96331.75
2023-05-06T21:21:48.670Z,96364.16
2023-05-06T21:24:18.226Z,96358.72
2023-05-06T21:26:45.141Z,96336.34
2023-05-06T21:29:12.080Z,96338.09
2023-05-06T21:31:39.068Z,96339.13
2023-05-06T21:34:08.152Z,96359.38
2023-05-06T21:36:38.194Z,96355.63
2023-05-06T21:39:09.950Z,96370.63
2023-05-06T21:41:36.967Z,96368.75
2023-05-06T21:44:08.069Z,96367.09
2023-05-06T21:46:35.385Z,96363.88
2023-05-06T21:49:02.352Z,96340.19
2023-05-06T21:51:35.228Z,96369.28
2023-05-06T21:54:03.062Z,96341.25
2023-05-06T21:56:30.005Z,96368.25
2023-05-06T21:58:56.993Z,96372.28
2023-05-06T22:01:29.378Z,96376.28
2023-05-06T22:03:56.533Z,96379.16
2023-05-06T22:06:23.501Z,96355.44
2023-05-06T22:08:50.567Z,96359.38
2023-05-06T22:11:17.510Z,96353.63
2023-05-06T22:13:44.437Z,96375.44
2023-05-06T22:16:11.469Z,96357.78
2023-05-06T22:18:41.698Z,96393.63
2023-05-06T22:21:09.950Z,96350.72
2023-05-06T22:23:36.951Z,96388.63
2023-05-06T22:26:03.996Z,96402.22
2023-05-06T22:28:30.962Z,96379.25
2023-05-06T22:30:57.850Z,96395.03
2023-05-06T22:33:26.561Z,96398.13
2023-05-06T22:35:54.005Z,96390.75
2023-05-06T22:38:20.815Z,96369.47
2023-05-06T22:40:47.680Z,96381.72
2023-05-06T22:43:17.318Z,96397.16
2023-05-06T22:45:44.974Z,96392.84
2023-05-06T22:48:12.307Z,96386.94
2023-05-06T22:50:39.209Z,96368.53
2023-05-06T22:53:14.491Z,96389.19
2023-05-06T22:55:42.152Z,96398.22
2023-05-06T22:58:09.059Z,96386.66
2023-05-06T23:00:36.047Z,96392.47
2023-05-06T23:03:03.190Z,96390.63
2023-05-06T23:05:30.170Z,96328.63
2023-05-06T23:07:57.037Z,96397.16
2023-05-06T23:10:24.002Z,96386.66
2023-05-06T23:12:50.991Z,96406.44
2023-05-06T23:15:17.976Z,96395.72
2023-05-06T23:17:44.847Z,96389.88
2023-05-06T23:20:13.054Z,96382.56
2023-05-06T23:22:39.953Z,96395.75
2023-05-06T23:25:09.269Z,96363.72
2023-05-06T23:27:40.024Z,96362.94
2023-05-06T23:30:08.310Z,96379.59
2023-05-06T23:32:35.330Z,96371.56
2023-05-06T23:35:03.076Z,96368.44
2023-05-06T23:37:29.919Z,96392.31
2023-05-06T23:39:58.850Z,96389.66
2023-05-06T23:42:26.039Z,96383.38
2023-05-06T23:44:53.733Z,96382.13
2023-05-06T23:47:20.612Z,96395.72
2023-05-06T23:49:47.512Z,96399.91
2023-05-06T23:52:14.456Z,96401.88
2023-05-06T23:54:41.326Z,96393.63
2023-05-06T23:57:08.360Z,96402.88
2023-05-06T23:59:35.280Z,96391.16
